sensor_id;sensor_type;location;lat;lon;timestamp;pressure;altitude;pressure_sealevel;temperature;humidity
3960;BME280;1994;48.640;8.894;2022-12-18T00:01:24;97101.63;;;-10.20;80.25
3960;BME280;1994;48.640;8.894;2022-12-18T00:03:52;97100.03;;;-10.21;79.59
3960;BME280;1994;48.640;8.894;2022-12-18T00:06:19;97096.09;;;-10.40;80.29
3960;BME280;1994;48.640;8.894;2022-12-18T00:08:46;97100.38;;;-10.27;80.68
3960;BME280;1994;48.640;8.894;2022-12-18T00:11:18;97089.63;;;-10.44;80.41
3960;BME280;1994;48.640;8.894;2022-12-18T00:13:45;97080.53;;;-10.45;80.17
3960;BME280;1994;48.640;8.894;2022-12-18T00:16:14;97079.88;;;-10.49;79.90
3960;BME280;1994;48.640;8.894;2022-12-18T00:18:41;97083.28;;;-10.50;80.16
3960;BME280;1994;48.640;8.894;2022-12-18T00:21:09;97097.78;;;-10.41;80.44
3960;BME280;1994;48.640;8.894;2022-12-18T00:23:37;97101.66;;;-10.35;80.48
3960;BME280;1994;48.640;8.894;2022-12-18T00:26:06;97100.53;;;-10.30;79.23
3960;BME280;1994;48.640;8.894;2022-12-18T00:28:33;97101.75;;;-10.37;79.08
3960;BME280;1994;48.640;8.894;2022-12-18T00:31:07;97110.09;;;-10.67;78.53
3960;BME280;1994;48.640;8.894;2022-12-18T00:33:35;97103.16;;;-10.78;78.98
3960;BME280;1994;48.640;8.894;2022-12-18T00:36:03;97110.41;;;-10.73;79.47
3960;BME280;1994;48.640;8.894;2022-12-18T00:38:29;97103.16;;;-10.78;79.70
3960;BME280;1994;48.640;8.894;2022-12-18T00:40:55;97102.00;;;-10.72;79.94
3960;BME280;1994;48.640;8.894;2022-12-18T00:43:21;97099.25;;;-10.68;80.66
3960;BME280;1994;48.640;8.894;2022-12-18T00:45:46;97087.81;;;-10.72;80.51
3960;BME280;1994;48.640;8.894;2022-12-18T00:48:12;97092.34;;;-10.94;81.63
3960;BME280;1994;48.640;8.894;2022-12-18T00:50:38;97099.78;;;-10.77;81.17
3960;BME280;1994;48.640;8.894;2022-12-18T00:53:04;97099.75;;;-10.61;81.08
3960;BME280;1994;48.640;8.894;2022-12-18T00:55:29;97095.94;;;-10.53;80.58
3960;BME280;1994;48.640;8.894;2022-12-18T00:57:55;97102.97;;;-10.44;80.60
3960;BME280;1994;48.640;8.894;2022-12-18T01:00:21;97107.97;;;-10.44;80.36
3960;BME280;1994;48.640;8.894;2022-12-18T01:02:47;97108.78;;;-10.43;80.38
3960;BME280;1994;48.640;8.894;2022-12-18T01:05:14;97106.53;;;-10.48;80.28
3960;BME280;1994;48.640;8.894;2022-12-18T01:07:41;97113.66;;;-10.56;79.93
3960;BME280;1994;48.640;8.894;2022-12-18T01:10:08;97105.81;;;-10.81;80.01
3960;BME280;1994;48.640;8.894;2022-12-18T01:12:35;97104.44;;;-10.71;79.80
3960;BME280;1994;48.640;8.894;2022-12-18T01:15:01;97102.66;;;-10.69;80.31
3960;BME280;1994;48.640;8.894;2022-12-18T01:17:27;97109.44;;;-10.71;79.50
3960;BME280;1994;48.640;8.894;2022-12-18T01:19:53;97097.66;;;-10.69;80.27
3960;BME280;1994;48.640;8.894;2022-12-18T01:22:19;97101.06;;;-10.70;80.18
3960;BME280;1994;48.640;8.894;2022-12-18T01:24:44;97095.56;;;-10.61;80.40
3960;BME280;1994;48.640;8.894;2022-12-18T01:27:10;97085.53;;;-10.76;80.81
3960;BME280;1994;48.640;8.894;2022-12-18T01:29:36;97092.16;;;-10.60;79.99
3960;BME280;1994;48.640;8.894;2022-12-18T01:32:01;97090.56;;;-10.61;80.32
3960;BME280;1994;48.640;8.894;2022-12-18T01:34:27;97105.72;;;-10.64;80.11
3960;BME280;1994;48.640;8.894;2022-12-18T01:36:53;97101.88;;;-10.69;79.77
3960;BME280;1994;48.640;8.894;2022-12-18T01:39:19;97108.22;;;-10.64;80.13
3960;BME280;1994;48.640;8.894;2022-12-18T01:41:45;97113.81;;;-10.59;80.98
3960;BME280;1994;48.640;8.894;2022-12-18T01:47:45;97112.34;;;-10.63;82.82
3960;BME280;1994;48.640;8.894;2022-12-18T01:50:21;97108.13;;;-10.47;83.33
3960;BME280;1994;48.640;8.894;2022-12-18T01:53:11;97107.16;;;-10.29;83.04
3960;BME280;1994;48.640;8.894;2022-12-18T01:55:48;97109.09;;;-10.34;82.92
3960;BME280;1994;48.640;8.894;2022-12-18T01:58:17;97108.53;;;-10.54;83.30
3960;BME280;1994;48.640;8.894;2022-12-18T02:00:43;97107.34;;;-10.63;83.41
3960;BME280;1994;48.640;8.894;2022-12-18T02:03:10;97105.59;;;-10.61;83.76
3960;BME280;1994;48.640;8.894;2022-12-18T02:06:11;97107.34;;;-10.94;85.27
3960;BME280;1994;48.640;8.894;2022-12-18T02:11:55;97104.44;;;-11.02;87.15
3960;BME280;1994;48.640;8.894;2022-12-18T02:17:42;97114.53;;;-10.88;87.86
3960;BME280;1994;48.640;8.894;2022-12-18T02:23:11;97110.72;;;-10.95;89.91
3960;BME280;1994;48.640;8.894;2022-12-18T02:29:16;97118.00;;;-10.90;91.29
3960;BME280;1994;48.640;8.894;2022-12-18T02:31:50;97117.34;;;-10.94;91.55
3960;BME280;1994;48.640;8.894;2022-12-18T02:34:18;97117.66;;;-10.69;91.42
3960;BME280;1994;48.640;8.894;2022-12-18T02:36:46;97120.41;;;-10.58;91.52
3960;BME280;1994;48.640;8.894;2022-12-18T02:39:14;97122.53;;;-10.66;91.72
3960;BME280;1994;48.640;8.894;2022-12-18T02:41:41;97128.16;;;-10.47;91.01
3960;BME280;1994;48.640;8.894;2022-12-18T02:44:11;97128.34;;;-10.50;91.01
3960;BME280;1994;48.640;8.894;2022-12-18T02:46:51;97126.22;;;-10.42;90.79
3960;BME280;1994;48.640;8.894;2022-12-18T02:49:31;97114.59;;;-10.43;90.67
3960;BME280;1994;48.640;8.894;2022-12-18T03:01:20;97114.38;;;-10.09;90.28
3960;BME280;1994;48.640;8.894;2022-12-18T03:04:14;97117.81;;;-9.96;89.82
3960;BME280;1994;48.640;8.894;2022-12-18T03:06:51;97130.66;;;-10.02;89.96
3960;BME280;1994;48.640;8.894;2022-12-18T03:09:37;97126.59;;;-9.89;90.64
3960;BME280;1994;48.640;8.894;2022-12-18T03:12:39;97116.22;;;-9.83;90.70
3960;BME280;1994;48.640;8.894;2022-12-18T03:15:22;97130.13;;;-9.77;91.15
3960;BME280;1994;48.640;8.894;2022-12-18T03:18:03;97134.66;;;-9.84;91.11
3960;BME280;1994;48.640;8.894;2022-12-18T03:20:33;97131.94;;;-9.95;92.27
3960;BME280;1994;48.640;8.894;2022-12-18T03:23:10;97135.50;;;-9.99;92.95
3960;BME280;1994;48.640;8.894;2022-12-18T03:25:42;97130.16;;;-10.07;93.73
3960;BME280;1994;48.640;8.894;2022-12-18T03:28:22;97131.69;;;-10.20;94.96
3960;BME280;1994;48.640;8.894;2022-12-18T03:30:54;97137.81;;;-10.10;95.23
3960;BME280;1994;48.640;8.894;2022-12-18T03:33:38;97143.56;;;-9.94;94.50
3960;BME280;1994;48.640;8.894;2022-12-18T03:36:06;97128.69;;;-9.97;94.78
3960;BME280;1994;48.640;8.894;2022-12-18T03:38:32;97143.22;;;-9.88;94.70
3960;BME280;1994;48.640;8.894;2022-12-18T03:41:35;97133.59;;;-9.80;94.53
3960;BME280;1994;48.640;8.894;2022-12-18T03:44:13;97132.50;;;-9.76;94.73
3960;BME280;1994;48.640;8.894;2022-12-18T03:50:29;97138.56;;;-9.94;95.45
3960;BME280;1994;48.640;8.894;2022-12-18T03:56:04;97121.44;;;-9.72;95.26
3960;BME280;1994;48.640;8.894;2022-12-18T03:58:33;97121.97;;;-9.67;95.42
3960;BME280;1994;48.640;8.894;2022-12-18T04:01:04;97131.66;;;-9.61;95.11
3960;BME280;1994;48.640;8.894;2022-12-18T04:03:32;97126.50;;;-9.58;95.62
3960;BME280;1994;48.640;8.894;2022-12-18T04:06:00;97132.50;;;-9.76;96.45
3960;BME280;1994;48.640;8.894;2022-12-18T04:08:28;97127.91;;;-9.68;97.12
3960;BME280;1994;48.640;8.894;2022-12-18T04:10:57;97124.84;;;-9.59;97.47
3960;BME280;1994;48.640;8.894;2022-12-18T04:13:27;97119.78;;;-9.43;96.91
3960;BME280;1994;48.640;8.894;2022-12-18T04:15:53;97126.53;;;-9.30;97.43
3960;BME280;1994;48.640;8.894;2022-12-18T04:18:19;97137.44;;;-9.17;96.95
3960;BME280;1994;48.640;8.894;2022-12-18T04:20:45;97130.72;;;-9.02;97.35
3960;BME280;1994;48.640;8.894;2022-12-18T04:23:11;97129.38;;;-8.94;97.21
3960;BME280;1994;48.640;8.894;2022-12-18T04:25:37;97137.59;;;-8.78;97.58
3960;BME280;1994;48.640;8.894;2022-12-18T04:28:03;97137.59;;;-8.64;97.72
3960;BME280;1994;48.640;8.894;2022-12-18T04:30:29;97132.75;;;-8.67;98.53
3960;BME280;1994;48.640;8.894;2022-12-18T04:32:55;97131.94;;;-8.67;98.89
3960;BME280;1994;48.640;8.894;2022-12-18T04:35:23;97127.00;;;-8.55;99.34
3960;BME280;1994;48.640;8.894;2022-12-18T04:37:49;97126.81;;;-8.52;99.39
3960;BME280;1994;48.640;8.894;2022-12-18T04:40:15;97126.25;;;-8.43;99.12
3960;BME280;1994;48.640;8.894;2022-12-18T04:42:42;97127.66;;;-8.39;98.56
3960;BME280;1994;48.640;8.894;2022-12-18T04:45:08;97127.03;;;-8.42;98.68
3960;BME280;1994;48.640;8.894;2022-12-18T04:47:34;97115.63;;;-8.34;98.55
3960;BME280;1994;48.640;8.894;2022-12-18T04:50:00;97118.47;;;-8.26;98.52
3960;BME280;1994;48.640;8.894;2022-12-18T04:52:26;97106.63;;;-8.24;98.57
3960;BME280;1994;48.640;8.894;2022-12-18T04:54:54;97119.38;;;-8.14;97.86
3960;BME280;1994;48.640;8.894;2022-12-18T04:57:20;97125.75;;;-8.09;98.04
3960;BME280;1994;48.640;8.894;2022-12-18T04:59:46;97128.44;;;-8.12;98.00
3960;BME280;1994;48.640;8.894;2022-12-18T05:02:12;97129.09;;;-7.96;98.13
3960;BME280;1994;48.640;8.894;2022-12-18T05:04:37;97125.19;;;-8.00;98.59
3960;BME280;1994;48.640;8.894;2022-12-18T05:07:04;97118.72;;;-8.04;98.17
3960;BME280;1994;48.640;8.894;2022-12-18T05:09:30;97116.53;;;-7.96;98.17
3960;BME280;1994;48.640;8.894;2022-12-18T05:11:55;97124.56;;;-7.91;98.04
3960;BME280;1994;48.640;8.894;2022-12-18T05:14:21;97118.97;;;-7.82;97.47
3960;BME280;1994;48.640;8.894;2022-12-18T05:16:47;97117.72;;;-8.01;97.95
3960;BME280;1994;48.640;8.894;2022-12-18T05:19:13;97121.16;;;-7.90;97.87
3960;BME280;1994;48.640;8.894;2022-12-18T05:21:42;97118.16;;;-7.82;97.28
3960;BME280;1994;48.640;8.894;2022-12-18T05:24:07;97116.38;;;-8.07;97.12
3960;BME280;1994;48.640;8.894;2022-12-18T05:26:33;97116.88;;;-8.27;98.35
3960;BME280;1994;48.640;8.894;2022-12-18T05:28:59;97129.97;;;-8.22;98.42
3960;BME280;1994;48.640;8.894;2022-12-18T05:31:25;97125.00;;;-8.50;98.69
3960;BME280;1994;48.640;8.894;2022-12-18T05:33:51;97136.09;;;-8.40;98.89
3960;BME280;1994;48.640;8.894;2022-12-18T05:36:16;97125.00;;;-8.50;98.45
3960;BME280;1994;48.640;8.894;2022-12-18T05:38:45;97128.59;;;-8.54;98.44
3960;BME280;1994;48.640;8.894;2022-12-18T05:41:11;97131.81;;;-8.52;98.28
3960;BME280;1994;48.640;8.894;2022-12-18T05:43:38;97131.66;;;-8.49;97.86
3960;BME280;1994;48.640;8.894;2022-12-18T05:46:13;97122.41;;;-8.48;97.97
3960;BME280;1994;48.640;8.894;2022-12-18T05:48:41;97117.13;;;-8.58;97.53
3960;BME280;1994;48.640;8.894;2022-12-18T05:51:10;97119.72;;;-8.59;97.45
3960;BME280;1994;48.640;8.894;2022-12-18T05:53:40;97111.78;;;-8.80;97.81
3960;BME280;1994;48.640;8.894;2022-12-18T05:56:11;97112.16;;;-8.86;97.85
3960;BME280;1994;48.640;8.894;2022-12-18T05:58:40;97117.91;;;-9.12;97.95
3960;BME280;1994;48.640;8.894;2022-12-18T06:01:27;97132.06;;;-9.11;98.43
3960;BME280;1994;48.640;8.894;2022-12-18T06:03:53;97123.63;;;-9.10;98.62
3960;BME280;1994;48.640;8.894;2022-12-18T06:06:27;97117.81;;;-9.10;98.16
3960;BME280;1994;48.640;8.894;2022-12-18T06:08:53;97127.41;;;-9.03;97.53
3960;BME280;1994;48.640;8.894;2022-12-18T06:11:25;97131.00;;;-8.93;97.29
3960;BME280;1994;48.640;8.894;2022-12-18T06:13:54;97141.91;;;-8.80;96.05
3960;BME280;1994;48.640;8.894;2022-12-18T06:16:20;97146.75;;;-8.77;95.69
3960;BME280;1994;48.640;8.894;2022-12-18T06:18:46;97153.06;;;-8.98;95.18
3960;BME280;1994;48.640;8.894;2022-12-18T06:21:13;97145.88;;;-9.04;95.41
3960;BME280;1994;48.640;8.894;2022-12-18T06:23:39;97148.03;;;-8.98;95.52
3960;BME280;1994;48.640;8.894;2022-12-18T06:26:10;97151.97;;;-9.08;94.68
3960;BME280;1994;48.640;8.894;2022-12-18T06:28:37;97152.50;;;-9.17;95.00
3960;BME280;1994;48.640;8.894;2022-12-18T06:31:04;97153.91;;;-8.99;95.37
3960;BME280;1994;48.640;8.894;2022-12-18T06:33:30;97157.59;;;-9.04;95.03
3960;BME280;1994;48.640;8.894;2022-12-18T06:36:05;97164.31;;;-9.05;95.31
3960;BME280;1994;48.640;8.894;2022-12-18T06:38:36;97157.88;;;-9.23;95.00
3960;BME280;1994;48.640;8.894;2022-12-18T06:41:11;97161.03;;;-9.49;95.75
3960;BME280;1994;48.640;8.894;2022-12-18T06:43:37;97164.50;;;-9.65;95.87
3960;BME280;1994;48.640;8.894;2022-12-18T06:46:09;97159.09;;;-9.44;95.87
3960;BME280;1994;48.640;8.894;2022-12-18T06:48:35;97166.34;;;-9.53;95.50
3960;BME280;1994;48.640;8.894;2022-12-18T06:51:05;97166.88;;;-9.78;95.61
3960;BME280;1994;48.640;8.894;2022-12-18T06:53:32;97177.19;;;-9.98;95.69
3960;BME280;1994;48.640;8.894;2022-12-18T06:56:03;97174.53;;;-9.95;96.22
3960;BME280;1994;48.640;8.894;2022-12-18T06:58:29;97184.59;;;-9.81;95.83
3960;BME280;1994;48.640;8.894;2022-12-18T07:01:04;97186.38;;;-9.83;95.09
3960;BME280;1994;48.640;8.894;2022-12-18T07:03:30;97184.78;;;-9.84;94.29
3960;BME280;1994;48.640;8.894;2022-12-18T07:05:56;97186.94;;;-9.78;92.96
3960;BME280;1994;48.640;8.894;2022-12-18T07:08:22;97196.31;;;-10.11;92.92
3960;BME280;1994;48.640;8.894;2022-12-18T07:10:48;97200.78;;;-10.16;94.37
3960;BME280;1994;48.640;8.894;2022-12-18T07:13:16;97200.38;;;-10.24;94.68
3960;BME280;1994;48.640;8.894;2022-12-18T07:15:43;97202.31;;;-10.29;94.74
3960;BME280;1994;48.640;8.894;2022-12-18T07:18:09;97201.59;;;-10.15;93.76
3960;BME280;1994;48.640;8.894;2022-12-18T07:20:36;97198.66;;;-10.08;93.50
3960;BME280;1994;48.640;8.894;2022-12-18T07:23:03;97207.63;;;-10.04;92.92
3960;BME280;1994;48.640;8.894;2022-12-18T07:25:36;97207.44;;;-10.01;92.80
3960;BME280;1994;48.640;8.894;2022-12-18T07:28:03;97195.94;;;-9.89;92.89
3960;BME280;1994;48.640;8.894;2022-12-18T07:30:32;97196.75;;;-9.89;92.09
3960;BME280;1994;48.640;8.894;2022-12-18T07:32:58;97192.09;;;-10.10;92.08
3960;BME280;1994;48.640;8.894;2022-12-18T07:35:24;97188.09;;;-10.13;93.01
3960;BME280;1994;48.640;8.894;2022-12-18T07:37:50;97195.44;;;-10.10;92.45
3960;BME280;1994;48.640;8.894;2022-12-18T07:40:16;97190.59;;;-10.13;92.83
3960;BME280;1994;48.640;8.894;2022-12-18T07:42:42;97197.13;;;-10.26;93.23
3960;BME280;1994;48.640;8.894;2022-12-18T07:45:08;97193.09;;;-10.13;92.35
3960;BME280;1994;48.640;8.894;2022-12-18T07:47:37;97202.31;;;-10.29;91.65
3960;BME280;1994;48.640;8.894;2022-12-18T07:50:04;97204.56;;;-10.24;91.48
3960;BME280;1994;48.640;8.894;2022-12-18T07:52:30;97203.63;;;-10.37;91.82
3960;BME280;1994;48.640;8.894;2022-12-18T07:54:56;97213.13;;;-10.44;91.88
3960;BME280;1994;48.640;8.894;2022-12-18T07:57:25;97216.53;;;-10.45;91.67
3960;BME280;1994;48.640;8.894;2022-12-18T07:59:51;97212.75;;;-10.69;92.90
3960;BME280;1994;48.640;8.894;2022-12-18T08:02:17;97211.13;;;-10.85;92.65
3960;BME280;1994;48.640;8.894;2022-12-18T08:04:42;97213.25;;;-10.78;93.03
3960;BME280;1994;48.640;8.894;2022-12-18T08:07:08;97218.25;;;-10.78;92.46
3960;BME280;1994;48.640;8.894;2022-12-18T08:09:34;97208.75;;;-10.56;92.99
3960;BME280;1994;48.640;8.894;2022-12-18T08:12:00;97219.28;;;-10.34;93.38
3960;BME280;1994;48.640;8.894;2022-12-18T08:14:29;97209.88;;;-10.15;92.93
3960;BME280;1994;48.640;8.894;2022-12-18T08:16:55;97216.50;;;-10.14;92.43
3960;BME280;1994;48.640;8.894;2022-12-18T08:19:20;97214.66;;;-9.81;92.46
3960;BME280;1994;48.640;8.894;2022-12-18T08:21:46;97222.03;;;-9.78;91.79
3960;BME280;1994;48.640;8.894;2022-12-18T08:24:12;97218.16;;;-9.54;91.47
3960;BME280;1994;48.640;8.894;2022-12-18T08:26:38;97216.63;;;-9.27;89.71
3960;BME280;1994;48.640;8.894;2022-12-18T08:29:04;97216.34;;;-8.93;88.97
3960;BME280;1994;48.640;8.894;2022-12-18T08:31:30;97215.38;;;-8.22;88.18
3960;BME280;1994;48.640;8.894;2022-12-18T08:33:57;97206.53;;;-7.62;86.62
3960;BME280;1994;48.640;8.894;2022-12-18T08:36:23;97216.69;;;-7.12;84.33
3960;BME280;1994;48.640;8.894;2022-12-18T08:38:49;97214.09;;;-6.85;82.73
3960;BME280;1994;48.640;8.894;2022-12-18T08:41:17;97214.59;;;-6.19;87.53
3960;BME280;1994;48.640;8.894;2022-12-18T08:43:46;97218.22;;;-5.64;85.18
3960;BME280;1994;48.640;8.894;2022-12-18T08:46:40;97210.78;;;-5.31;79.83
3960;BME280;1994;48.640;8.894;2022-12-18T08:49:07;97206.59;;;-5.43;76.02
3960;BME280;1994;48.640;8.894;2022-12-18T08:51:34;97199.81;;;-5.08;76.84
3960;BME280;1994;48.640;8.894;2022-12-18T08:54:00;97199.34;;;-5.13;74.18
3960;BME280;1994;48.640;8.894;2022-12-18T08:56:26;97200.56;;;-4.84;72.95
3960;BME280;1994;48.640;8.894;2022-12-18T08:58:53;97200.78;;;-4.43;72.70
3960;BME280;1994;48.640;8.894;2022-12-18T09:01:20;97200.69;;;-3.77;70.96
3960;BME280;1994;48.640;8.894;2022-12-18T09:03:47;97204.78;;;-3.65;69.44
3960;BME280;1994;48.640;8.894;2022-12-18T09:06:16;97202.03;;;-3.10;67.84
3960;BME280;1994;48.640;8.894;2022-12-18T09:08:43;97195.81;;;-2.76;67.00
3960;BME280;1994;48.640;8.894;2022-12-18T09:11:26;97191.09;;;-2.60;65.75
3960;BME280;1994;48.640;8.894;2022-12-18T09:13:56;97198.75;;;-2.20;66.21
3960;BME280;1994;48.640;8.894;2022-12-18T09:16:25;97196.72;;;-1.68;64.23
3960;BME280;1994;48.640;8.894;2022-12-18T09:18:51;97195.09;;;-1.69;61.96
3960;BME280;1994;48.640;8.894;2022-12-18T09:21:20;97198.28;;;-1.86;62.17
3960;BME280;1994;48.640;8.894;2022-12-18T09:23:54;97185.47;;;-1.37;61.21
3960;BME280;1994;48.640;8.894;2022-12-18T09:26:22;97194.56;;;-1.44;61.21
3960;BME280;1994;48.640;8.894;2022-12-18T09:28:49;97189.50;;;-1.25;62.52
3960;BME280;1994;48.640;8.894;2022-12-18T09:31:16;97193.22;;;-0.91;61.95
3960;BME280;1994;48.640;8.894;2022-12-18T09:33:42;97194.91;;;-0.82;60.16
3960;BME280;1994;48.640;8.894;2022-12-18T09:36:13;97192.41;;;-1.01;61.43
3960;BME280;1994;48.640;8.894;2022-12-18T09:38:40;97183.06;;;-1.67;62.12
3960;BME280;1994;48.640;8.894;2022-12-18T09:47:28;97196.19;;;-1.24;62.33
3960;BME280;1994;48.640;8.894;2022-12-18T09:50:04;97193.69;;;-0.78;60.82
3960;BME280;1994;48.640;8.894;2022-12-18T09:52:41;97188.34;;;-0.75;61.75
3960;BME280;1994;48.640;8.894;2022-12-18T09:55:33;97190.22;;;-0.31;60.34
3960;BME280;1994;48.640;8.894;2022-12-18T09:58:13;97195.56;;;-0.07;59.57
3960;BME280;1994;48.640;8.894;2022-12-18T10:00:41;97195.59;;;0.37;58.02
3960;BME280;1994;48.640;8.894;2022-12-18T10:03:15;97197.78;;;0.32;56.58
3960;BME280;1994;48.640;8.894;2022-12-18T10:08:46;97198.00;;;0.39;56.17
3960;BME280;1994;48.640;8.894;2022-12-18T10:11:49;97202.81;;;0.77;56.50
3960;BME280;1994;48.640;8.894;2022-12-18T10:15:19;97192.66;;;1.28;53.71
3960;BME280;1994;48.640;8.894;2022-12-18T10:18:02;97189.88;;;1.39;53.81
3960;BME280;1994;48.640;8.894;2022-12-18T10:20:36;97190.09;;;1.20;54.37
3960;BME280;1994;48.640;8.894;2022-12-18T10:23:39;97200.16;;;1.55;53.80
3960;BME280;1994;48.640;8.894;2022-12-18T10:26:10;97188.91;;;1.40;54.70
3960;BME280;1994;48.640;8.894;2022-12-18T10:28:40;97196.06;;;2.03;52.34
3960;BME280;1994;48.640;8.894;2022-12-18T10:31:17;97188.19;;;1.81;54.39
3960;BME280;1994;48.640;8.894;2022-12-18T10:33:46;97182.25;;;1.21;54.98
3960;BME280;1994;48.640;8.894;2022-12-18T10:36:13;97187.84;;;1.25;55.05
3960;BME280;1994;48.640;8.894;2022-12-18T10:38:42;97188.31;;;1.46;55.72
3960;BME280;1994;48.640;8.894;2022-12-18T10:43:47;97195.53;;;0.82;56.01
3960;BME280;1994;48.640;8.894;2022-12-18T10:46:19;97187.06;;;0.99;55.94
3960;BME280;1994;48.640;8.894;2022-12-18T10:48:56;97200.91;;;-0.01;58.17
3960;BME280;1994;48.640;8.894;2022-12-18T10:51:36;97202.75;;;0.07;58.59
3960;BME280;1994;48.640;8.894;2022-12-18T10:54:13;97178.00;;;-0.28;59.92
3960;BME280;1994;48.640;8.894;2022-12-18T10:56:41;97182.44;;;-0.03;59.50
3960;BME280;1994;48.640;8.894;2022-12-18T10:59:13;97178.31;;;0.49;58.17
3960;BME280;1994;48.640;8.894;2022-12-18T11:01:52;97170.19;;;1.06;57.76
3960;BME280;1994;48.640;8.894;2022-12-18T11:04:28;97176.84;;;1.24;56.96
3960;BME280;1994;48.640;8.894;2022-12-18T11:07:08;97170.09;;;1.15;56.92
3960;BME280;1994;48.640;8.894;2022-12-18T11:09:39;97168.31;;;1.67;56.75
3960;BME280;1994;48.640;8.894;2022-12-18T11:12:18;97161.06;;;2.61;55.14
3960;BME280;1994;48.640;8.894;2022-12-18T11:14:52;97167.63;;;2.88;53.21
3960;BME280;1994;48.640;8.894;2022-12-18T11:17:31;97157.06;;;2.91;53.29
3960;BME280;1994;48.640;8.894;2022-12-18T11:20:26;97163.47;;;3.03;52.70
3960;BME280;1994;48.640;8.894;2022-12-18T11:23:11;97163.28;;;3.20;53.66
3960;BME280;1994;48.640;8.894;2022-12-18T11:25:38;97160.91;;;3.03;52.80
3960;BME280;1994;48.640;8.894;2022-12-18T11:31:20;97161.19;;;2.44;55.08
3960;BME280;1994;48.640;8.894;2022-12-18T11:36:42;97154.41;;;2.03;56.89
3960;BME280;1994;48.640;8.894;2022-12-18T11:39:40;97145.28;;;2.00;56.65
3960;BME280;1994;48.640;8.894;2022-12-18T11:48:05;97139.75;;;1.71;58.11
3960;BME280;1994;48.640;8.894;2022-12-18T11:53:02;97137.19;;;1.63;59.75
3960;BME280;1994;48.640;8.894;2022-12-18T11:56:27;97143.19;;;1.54;60.03
3960;BME280;1994;48.640;8.894;2022-12-18T12:02:40;97137.84;;;1.32;60.73
3960;BME280;1994;48.640;8.894;2022-12-18T12:08:19;97125.75;;;0.48;63.13
3960;BME280;1994;48.640;8.894;2022-12-18T12:17:32;97114.81;;;-0.32;66.94
3960;BME280;1994;48.640;8.894;2022-12-18T12:20:20;97111.00;;;-0.28;68.24
3960;BME280;1994;48.640;8.894;2022-12-18T12:23:09;97113.66;;;-0.20;67.89
3960;BME280;1994;48.640;8.894;2022-12-18T12:34:34;97115.00;;;0.19;68.39
3960;BME280;1994;48.640;8.894;2022-12-18T12:39:37;97122.97;;;-0.11;68.54
3960;BME280;1994;48.640;8.894;2022-12-18T12:46:14;97118.09;;;-0.49;69.97
3960;BME280;1994;48.640;8.894;2022-12-18T12:51:20;97123.47;;;-0.52;70.78
3960;BME280;1994;48.640;8.894;2022-12-18T12:53:47;97127.44;;;-0.76;71.30
3960;BME280;1994;48.640;8.894;2022-12-18T12:56:16;97125.97;;;-0.79;72.67
3960;BME280;1994;48.640;8.894;2022-12-18T12:59:13;97132.44;;;-0.94;72.57
3960;BME280;1994;48.640;8.894;2022-12-18T13:08:07;97147.41;;;-0.81;72.74
3960;BME280;1994;48.640;8.894;2022-12-18T13:16:04;97132.75;;;-1.16;73.78
3960;BME280;1994;48.640;8.894;2022-12-18T13:18:30;97123.44;;;-1.44;75.39
3960;BME280;1994;48.640;8.894;2022-12-18T13:25:58;97126.88;;;-1.26;75.29
3960;BME280;1994;48.640;8.894;2022-12-18T13:31:02;97115.66;;;-1.23;75.79
3960;BME280;1994;48.640;8.894;2022-12-18T13:38:43;97115.66;;;-1.33;76.57
3960;BME280;1994;48.640;8.894;2022-12-18T13:43:49;97106.59;;;-1.45;77.61
3960;BME280;1994;48.640;8.894;2022-12-18T13:51:49;97107.94;;;-1.69;78.68
3960;BME280;1994;48.640;8.894;2022-12-18T13:54:35;97106.88;;;-1.76;78.58
3960;BME280;1994;48.640;8.894;2022-12-18T13:57:03;97116.91;;;-1.75;79.03
3960;BME280;1994;48.640;8.894;2022-12-18T13:59:38;97117.56;;;-1.92;79.54
3960;BME280;1994;48.640;8.894;2022-12-18T14:02:16;97112.34;;;-1.90;79.96
3960;BME280;1994;48.640;8.894;2022-12-18T14:04:45;97122.09;;;-1.86;80.22
3960;BME280;1994;48.640;8.894;2022-12-18T14:07:28;97121.28;;;-2.05;80.24
3960;BME280;1994;48.640;8.894;2022-12-18T14:10:01;97125.53;;;-2.15;80.95
3960;BME280;1994;48.640;8.894;2022-12-18T14:12:32;97118.19;;;-2.28;81.76
3960;BME280;1994;48.640;8.894;2022-12-18T14:17:57;97117.53;;;-2.20;81.01
3960;BME280;1994;48.640;8.894;2022-12-18T14:20:27;97112.88;;;-2.06;80.91
3960;BME280;1994;48.640;8.894;2022-12-18T14:22:54;97118.84;;;-2.26;80.69
3960;BME280;1994;48.640;8.894;2022-12-18T14:25:29;97114.31;;;-2.13;80.88
3960;BME280;1994;48.640;8.894;2022-12-18T14:30:45;97120.97;;;-2.31;81.28
3960;BME280;1994;48.640;8.894;2022-12-18T14:33:22;97120.56;;;-2.36;81.25
3960;BME280;1994;48.640;8.894;2022-12-18T14:36:04;97111.09;;;-2.34;81.85
3960;BME280;1994;48.640;8.894;2022-12-18T14:38:38;97111.88;;;-2.43;82.27
3960;BME280;1994;48.640;8.894;2022-12-18T14:41:13;97123.06;;;-2.45;82.12
3960;BME280;1994;48.640;8.894;2022-12-18T14:43:41;97123.38;;;-2.39;82.59
3960;BME280;1994;48.640;8.894;2022-12-18T14:46:36;97120.44;;;-2.25;81.53
3960;BME280;1994;48.640;8.894;2022-12-18T14:51:56;97131.63;;;-2.37;81.65
3960;BME280;1994;48.640;8.894;2022-12-18T14:54:24;97130.03;;;-2.47;81.84
3960;BME280;1994;48.640;8.894;2022-12-18T14:57:31;97133.19;;;-2.55;82.01
3960;BME280;1994;48.640;8.894;2022-12-18T15:00:19;97132.25;;;-2.54;81.67
3960;BME280;1994;48.640;8.894;2022-12-18T15:02:54;97127.59;;;-2.49;81.29
3960;BME280;1994;48.640;8.894;2022-12-18T15:05:30;97130.91;;;-2.58;81.51
3960;BME280;1994;48.640;8.894;2022-12-18T15:07:59;97130.75;;;-2.66;81.20
3960;BME280;1994;48.640;8.894;2022-12-18T15:10:31;97127.28;;;-2.65;81.67
3960;BME280;1994;48.640;8.894;2022-12-18T15:25:45;97120.94;;;-3.10;82.60
3960;BME280;1994;48.640;8.894;2022-12-18T15:28:56;97128.34;;;-3.18;82.24
3960;BME280;1994;48.640;8.894;2022-12-18T15:31:31;97135.53;;;-3.23;83.17
3960;BME280;1994;48.640;8.894;2022-12-18T15:36:28;97128.84;;;-3.24;83.10
3960;BME280;1994;48.640;8.894;2022-12-18T15:38:56;97130.72;;;-3.26;82.96
3960;BME280;1994;48.640;8.894;2022-12-18T15:41:23;97126.81;;;-3.30;82.61
3960;BME280;1994;48.640;8.894;2022-12-18T15:43:51;97128.00;;;-3.34;82.94
3960;BME280;1994;48.640;8.894;2022-12-18T15:46:21;97133.31;;;-3.37;82.57
3960;BME280;1994;48.640;8.894;2022-12-18T15:48:53;97131.69;;;-3.38;83.12
3960;BME280;1994;48.640;8.894;2022-12-18T15:51:35;97121.81;;;-3.41;82.70
3960;BME280;1994;48.640;8.894;2022-12-18T15:54:05;97118.97;;;-3.27;85.29
3960;BME280;1994;48.640;8.894;2022-12-18T15:56:34;97135.66;;;-2.74;88.86
3960;BME280;1994;48.640;8.894;2022-12-18T15:59:20;97136.06;;;-2.69;86.46
3960;BME280;1994;48.640;8.894;2022-12-18T16:01:49;97136.53;;;-2.84;83.76
3960;BME280;1994;48.640;8.894;2022-12-18T16:04:19;97129.53;;;-3.01;82.82
3960;BME280;1994;48.640;8.894;2022-12-18T16:06:49;97130.81;;;-3.07;82.46
3960;BME280;1994;48.640;8.894;2022-12-18T16:09:15;97128.34;;;-3.18;82.61